sensor_id;sensor_type;location;lat;lon;timestamp;temperature;humidity
18794;DHT22;29610;49.022;12.114;2023-03-03T00:01:41;0.80;96.20
18794;DHT22;29610;49.022;12.114;2023-03-03T00:04:10;0.70;96.30
18794;DHT22;29610;49.022;12.114;2023-03-03T00:06:39;0.60;96.30
18794;DHT22;29610;49.022;12.114;2023-03-03T00:09:07;0.60;96.50
18794;DHT22;29610;49.022;12.114;2023-03-03T00:11:37;0.60;96.50
18794;DHT22;29610;49.022;12.114;2023-03-03T00:14:17;0.70;96.50
18794;DHT22;29610;49.022;12.114;2023-03-03T00:16:49;0.60;96.50
18794;DHT22;29610;49.022;12.114;2023-03-03T00:19:19;0.50;96.40
18794;DHT22;29610;49.022;12.114;2023-03-03T00:21:50;0.50;96.40
18794;DHT22;29610;49.022;12.114;2023-03-03T00:24:21;0.50;96.50
18794;DHT22;29610;49.022;12.114;2023-03-03T00:27:16;0.40;96.50
18794;DHT22;29610;49.022;12.114;2023-03-03T00:29:55;0.40;96.50
18794;DHT22;29610;49.022;12.114;2023-03-03T00:32:26;0.40;96.50
18794;DHT22;29610;49.022;12.114;2023-03-03T00:35:17;0.40;96.60
18794;DHT22;29610;49.022;12.114;2023-03-03T00:37:54;0.30;96.70
18794;DHT22;29610;49.022;12.114;2023-03-03T00:40:25;0.30;96.80
18794;DHT22;29610;49.022;12.114;2023-03-03T00:42:59;0.20;97.00
18794;DHT22;29610;49.022;12.114;2023-03-03T00:45:36;0.10;96.80
18794;DHT22;29610;49.022;12.114;2023-03-03T00:48:22;0.10;96.90
18794;DHT22;29610;49.022;12.114;2023-03-03T00:50:53;0.00;97.00
18794;DHT22;29610;49.022;12.114;2023-03-03T00:53:25;0.00;97.10
18794;DHT22;29610;49.022;12.114;2023-03-03T00:55:56;-0.10;97.20
18794;DHT22;29610;49.022;12.114;2023-03-03T00:58:25;-0.10;97.40
18794;DHT22;29610;49.022;12.114;2023-03-03T01:00:56;-0.10;97.50
18794;DHT22;29610;49.022;12.114;2023-03-03T01:03:35;-0.10;97.50
18794;DHT22;29610;49.022;12.114;2023-03-03T01:06:04;-0.10;97.50
18794;DHT22;29610;49.022;12.114;2023-03-03T01:08:33;-0.10;97.60
18794;DHT22;29610;49.022;12.114;2023-03-03T01:11:05;-0.10;97.60
18794;DHT22;29610;49.022;12.114;2023-03-03T01:13:39;-0.20;97.50
18794;DHT22;29610;49.022;12.114;2023-03-03T01:16:11;-0.20;97.70
18794;DHT22;29610;49.022;12.114;2023-03-03T01:18:41;-0.30;97.60
18794;DHT22;29610;49.022;12.114;2023-03-03T01:21:11;-0.50;97.50
18794;DHT22;29610;49.022;12.114;2023-03-03T01:23:39;-0.50;97.60
18794;DHT22;29610;49.022;12.114;2023-03-03T01:26:08;-0.50;97.80
18794;DHT22;29610;49.022;12.114;2023-03-03T01:28:38;-0.50;98.00
18794;DHT22;29610;49.022;12.114;2023-03-03T01:31:07;-0.60;98.10
18794;DHT22;29610;49.022;12.114;2023-03-03T01:33:37;-0.60;98.20
18794;DHT22;29610;49.022;12.114;2023-03-03T01:36:06;-0.60;98.30
18794;DHT22;29610;49.022;12.114;2023-03-03T01:38:35;-1.70;97.80
18794;DHT22;29610;49.022;12.114;2023-03-03T01:41:05;-0.60;98.30
18794;DHT22;29610;49.022;12.114;2023-03-03T01:43:34;-0.60;98.30
18794;DHT22;29610;49.022;12.114;2023-03-03T01:46:37;-0.60;98.40
18794;DHT22;29610;49.022;12.114;2023-03-03T01:49:15;-0.60;98.40
18794;DHT22;29610;49.022;12.114;2023-03-03T01:51:51;-0.60;98.40
18794;DHT22;29610;49.022;12.114;2023-03-03T01:54:25;-0.50;98.40
18794;DHT22;29610;49.022;12.114;2023-03-03T01:56:59;-0.50;98.30
18794;DHT22;29610;49.022;12.114;2023-03-03T01:59:33;-0.60;98.20
18794;DHT22;29610;49.022;12.114;2023-03-03T02:02:04;-0.60;98.30
18794;DHT22;29610;49.022;12.114;2023-03-03T02:04:34;-0.60;98.30
18794;DHT22;29610;49.022;12.114;2023-03-03T02:07:06;-0.60;98.30
18794;DHT22;29610;49.022;12.114;2023-03-03T02:09:44;-0.70;98.30
18794;DHT22;29610;49.022;12.114;2023-03-03T02:12:19;-0.60;98.30
18794;DHT22;29610;49.022;12.114;2023-03-03T02:14:53;-0.60;98.30
18794;DHT22;29610;49.022;12.114;2023-03-03T02:17:21;-0.70;98.20
18794;DHT22;29610;49.022;12.114;2023-03-03T02:19:57;-0.70;98.30
18794;DHT22;29610;49.022;12.114;2023-03-03T02:22:36;-0.80;98.30
18794;DHT22;29610;49.022;12.114;2023-03-03T02:25:17;-0.70;98.40
18794;DHT22;29610;49.022;12.114;2023-03-03T02:27:55;-0.80;98.20
18794;DHT22;29610;49.022;12.114;2023-03-03T02:30:24;-0.80;98.30
18794;DHT22;29610;49.022;12.114;2023-03-03T02:32:53;-0.90;98.40
18794;DHT22;29610;49.022;12.114;2023-03-03T02:35:28;-0.90;98.40
18794;DHT22;29610;49.022;12.114;2023-03-03T02:38:12;-0.90;98.50
18794;DHT22;29610;49.022;12.114;2023-03-03T02:41:03;-0.90;98.60
18794;DHT22;29610;49.022;12.114;2023-03-03T02:43:45;-1.00;98.50
18794;DHT22;29610;49.022;12.114;2023-03-03T02:46:21;-0.90;98.50
18794;DHT22;29610;49.022;12.114;2023-03-03T02:48:49;-0.90;98.50
18794;DHT22;29610;49.022;12.114;2023-03-03T02:51:18;-0.90;98.50
18794;DHT22;29610;49.022;12.114;2023-03-03T02:53:47;-1.00;98.40
18794;DHT22;29610;49.022;12.114;2023-03-03T02:56:16;-0.90;98.40
18794;DHT22;29610;49.022;12.114;2023-03-03T02:58:46;-1.00;98.40
18794;DHT22;29610;49.022;12.114;2023-03-03T03:01:15;-0.90;98.40
18794;DHT22;29610;49.022;12.114;2023-03-03T03:03:45;-0.90;98.40
18794;DHT22;29610;49.022;12.114;2023-03-03T03:06:18;-1.00;98.30
18794;DHT22;29610;49.022;12.114;2023-03-03T03:08:47;-1.00;98.30
18794;DHT22;29610;49.022;12.114;2023-03-03T03:11:15;-1.00;98.30
18794;DHT22;29610;49.022;12.114;2023-03-03T03:13:45;-1.00;98.40
18794;DHT22;29610;49.022;12.114;2023-03-03T03:16:14;-1.00;98.30
18794;DHT22;29610;49.022;12.114;2023-03-03T03:18:43;-1.00;98.30
18794;DHT22;29610;49.022;12.114;2023-03-03T03:21:12;-0.90;98.20
18794;DHT22;29610;49.022;12.114;2023-03-03T03:23:41;-1.00;98.20
18794;DHT22;29610;49.022;12.114;2023-03-03T03:26:12;-1.00;98.10
18794;DHT22;29610;49.022;12.114;2023-03-03T03:28:41;-1.00;98.40
18794;DHT22;29610;49.022;12.114;2023-03-03T03:31:11;-1.10;98.00
18794;DHT22;29610;49.022;12.114;2023-03-03T03:33:40;-1.10;98.10
18794;DHT22;29610;49.022;12.114;2023-03-03T03:36:09;-1.10;98.10
18794;DHT22;29610;49.022;12.114;2023-03-03T03:38:40;-1.10;98.00
18794;DHT22;29610;49.022;12.114;2023-03-03T03:41:10;-1.10;98.10
18794;DHT22;29610;49.022;12.114;2023-03-03T03:43:40;-1.10;98.00
18794;DHT22;29610;49.022;12.114;2023-03-03T03:46:08;-1.10;98.10
18794;DHT22;29610;49.022;12.114;2023-03-03T03:48:38;-1.10;97.90
18794;DHT22;29610;49.022;12.114;2023-03-03T03:51:10;-1.00;97.90
18794;DHT22;29610;49.022;12.114;2023-03-03T03:53:40;-1.00;97.80
18794;DHT22;29610;49.022;12.114;2023-03-03T03:56:09;-1.00;98.00
18794;DHT22;29610;49.022;12.114;2023-03-03T03:58:40;-1.10;97.70
18794;DHT22;29610;49.022;12.114;2023-03-03T04:01:11;-1.10;97.70
18794;DHT22;29610;49.022;12.114;2023-03-03T04:03:47;-1.10;97.80
18794;DHT22;29610;49.022;12.114;2023-03-03T04:06:19;-1.20;97.80
18794;DHT22;29610;49.022;12.114;2023-03-03T04:08:47;-1.20;97.90
18794;DHT22;29610;49.022;12.114;2023-03-03T04:11:18;-1.30;97.90
18794;DHT22;29610;49.022;12.114;2023-03-03T04:13:47;-1.30;98.00
18794;DHT22;29610;49.022;12.114;2023-03-03T04:16:16;-1.20;98.00
18794;DHT22;29610;49.022;12.114;2023-03-03T04:18:47;-1.20;97.90
18794;DHT22;29610;49.022;12.114;2023-03-03T04:21:16;-1.30;97.90
18794;DHT22;29610;49.022;12.114;2023-03-03T04:23:46;-1.30;97.90
18794;DHT22;29610;49.022;12.114;2023-03-03T04:26:14;-1.30;98.00
18794;DHT22;29610;49.022;12.114;2023-03-03T04:28:43;-1.30;98.10
18794;DHT22;29610;49.022;12.114;2023-03-03T04:31:13;-1.30;98.10
18794;DHT22;29610;49.022;12.114;2023-03-03T04:33:43;-1.40;98.20
18794;DHT22;29610;49.022;12.114;2023-03-03T04:36:13;-0.90;98.30
18794;DHT22;29610;49.022;12.114;2023-03-03T04:38:42;-1.30;98.00
18794;DHT22;29610;49.022;12.114;2023-03-03T04:41:11;-1.20;97.90
18794;DHT22;29610;49.022;12.114;2023-03-03T04:43:40;-1.20;97.80
18794;DHT22;29610;49.022;12.114;2023-03-03T04:46:11;-1.20;97.80
18794;DHT22;29610;49.022;12.114;2023-03-03T04:48:40;-1.20;97.80
18794;DHT22;29610;49.022;12.114;2023-03-03T04:51:10;-1.10;97.70
18794;DHT22;29610;49.022;12.114;2023-03-03T04:53:40;-1.00;97.70
18794;DHT22;29610;49.022;12.114;2023-03-03T04:56:09;-0.90;97.60
18794;DHT22;29610;49.022;12.114;2023-03-03T04:58:38;-0.90;97.50
18794;DHT22;29610;49.022;12.114;2023-03-03T05:01:09;-0.90;97.60
18794;DHT22;29610;49.022;12.114;2023-03-03T05:03:40;-0.90;97.60
18794;DHT22;29610;49.022;12.114;2023-03-03T05:06:09;-0.90;98.10
18794;DHT22;29610;49.022;12.114;2023-03-03T05:08:37;-0.90;97.90
18794;DHT22;29610;49.022;12.114;2023-03-03T05:11:12;-0.90;98.00
18794;DHT22;29610;49.022;12.114;2023-03-03T05:13:41;-0.90;98.10
18794;DHT22;29610;49.022;12.114;2023-03-03T05:16:09;-0.80;98.10
18794;DHT22;29610;49.022;12.114;2023-03-03T05:18:39;-0.90;98.10
18794;DHT22;29610;49.022;12.114;2023-03-03T05:21:07;-0.90;98.10
18794;DHT22;29610;49.022;12.114;2023-03-03T05:23:36;-0.90;98.10
18794;DHT22;29610;49.022;12.114;2023-03-03T05:26:06;-0.80;98.10
18794;DHT22;29610;49.022;12.114;2023-03-03T05:28:35;-0.80;97.80
18794;DHT22;29610;49.022;12.114;2023-03-03T05:31:04;-0.80;97.60
18794;DHT22;29610;49.022;12.114;2023-03-03T05:33:33;-0.70;97.40
18794;DHT22;29610;49.022;12.114;2023-03-03T05:36:02;-0.70;97.30
18794;DHT22;29610;49.022;12.114;2023-03-03T05:38:31;-0.70;97.10
18794;DHT22;29610;49.022;12.114;2023-03-03T05:41:00;-0.60;97.20
18794;DHT22;29610;49.022;12.114;2023-03-03T05:43:30;-0.50;96.80
18794;DHT22;29610;49.022;12.114;2023-03-03T05:45:59;-0.60;96.80
18794;DHT22;29610;49.022;12.114;2023-03-03T05:48:28;-0.60;96.70
18794;DHT22;29610;49.022;12.114;2023-03-03T05:50:57;0.20;97.00
18794;DHT22;29610;49.022;12.114;2023-03-03T05:53:27;-0.60;96.70
18794;DHT22;29610;49.022;12.114;2023-03-03T05:55:56;-0.70;96.70
18794;DHT22;29610;49.022;12.114;2023-03-03T05:58:24;-1.90;96.30
18794;DHT22;29610;49.022;12.114;2023-03-03T06:00:55;-0.80;96.80
18794;DHT22;29610;49.022;12.114;2023-03-03T06:03:23;-0.90;96.80
18794;DHT22;29610;49.022;12.114;2023-03-03T06:05:52;-0.90;96.80
18794;DHT22;29610;49.022;12.114;2023-03-03T06:08:21;-0.90;96.90
18794;DHT22;29610;49.022;12.114;2023-03-03T06:10:50;-0.90;96.90
18794;DHT22;29610;49.022;12.114;2023-03-03T06:16:54;-0.90;97.10
18794;DHT22;29610;49.022;12.114;2023-03-03T06:19:24;-0.90;97.00
18794;DHT22;29610;49.022;12.114;2023-03-03T06:21:53;-0.90;97.00
18794;DHT22;29610;49.022;12.114;2023-03-03T06:24:21;-0.90;97.00
18794;DHT22;29610;49.022;12.114;2023-03-03T06:26:51;-0.90;97.00
18794;DHT22;29610;49.022;12.114;2023-03-03T06:29:20;-1.00;97.00
18794;DHT22;29610;49.022;12.114;2023-03-03T06:31:48;-0.90;97.10
18794;DHT22;29610;49.022;12.114;2023-03-03T06:34:25;-0.90;97.00
18794;DHT22;29610;49.022;12.114;2023-03-03T06:37:11;-0.90;97.10
18794;DHT22;29610;49.022;12.114;2023-03-03T06:39:40;-0.80;97.00
18794;DHT22;29610;49.022;12.114;2023-03-03T06:42:09;-0.80;97.00
18794;DHT22;29610;49.022;12.114;2023-03-03T06:44:38;-0.80;96.90
18794;DHT22;29610;49.022;12.114;2023-03-03T06:47:07;-0.70;96.80
18794;DHT22;29610;49.022;12.114;2023-03-03T06:49:37;-0.70;96.80
18794;DHT22;29610;49.022;12.114;2023-03-03T06:52:11;-0.70;96.90
18794;DHT22;29610;49.022;12.114;2023-03-03T06:54:41;-0.70;96.90
18794;DHT22;29610;49.022;12.114;2023-03-03T06:57:16;-0.60;96.90
18794;DHT22;29610;49.022;12.114;2023-03-03T06:59:51;-0.60;96.80
18794;DHT22;29610;49.022;12.114;2023-03-03T07:02:22;-0.60;96.60
18794;DHT22;29610;49.022;12.114;2023-03-03T07:04:52;-0.50;96.60
18794;DHT22;29610;49.022;12.114;2023-03-03T07:07:24;-0.20;96.70
18794;DHT22;29610;49.022;12.114;2023-03-03T07:09:55;-0.50;96.50
18794;DHT22;29610;49.022;12.114;2023-03-03T07:12:26;-0.50;96.40
18794;DHT22;29610;49.022;12.114;2023-03-03T07:15:12;-0.40;96.40
18794;DHT22;29610;49.022;12.114;2023-03-03T07:17:45;-0.40;96.30
18794;DHT22;29610;49.022;12.114;2023-03-03T07:20:21;-0.30;96.20
18794;DHT22;29610;49.022;12.114;2023-03-03T07:22:51;-0.20;96.10
18794;DHT22;29610;49.022;12.114;2023-03-03T07:25:26;-0.10;95.90
18794;DHT22;29610;49.022;12.114;2023-03-03T07:28:00;-0.10;96.10
18794;DHT22;29610;49.022;12.114;2023-03-03T07:30:39;0.00;95.90
18794;DHT22;29610;49.022;12.114;2023-03-03T07:33:19;0.10;95.50
18794;DHT22;29610;49.022;12.114;2023-03-03T07:35:56;0.30;95.30
18794;DHT22;29610;49.022;12.114;2023-03-03T07:38:32;0.40;95.00
18794;DHT22;29610;49.022;12.114;2023-03-03T07:41:08;0.50;94.70
18794;DHT22;29610;49.022;12.114;2023-03-03T07:43:47;0.60;94.70
18794;DHT22;29610;49.022;12.114;2023-03-03T07:46:25;0.70;94.40
18794;DHT22;29610;49.022;12.114;2023-03-03T07:48:58;0.80;93.90
18794;DHT22;29610;49.022;12.114;2023-03-03T07:51:36;0.80;93.90
18794;DHT22;29610;49.022;12.114;2023-03-03T07:54:23;0.80;94.00
18794;DHT22;29610;49.022;12.114;2023-03-03T07:57:06;0.90;93.90
18794;DHT22;29610;49.022;12.114;2023-03-03T07:59:46;1.10;93.70
18794;DHT22;29610;49.022;12.114;2023-03-03T08:02:32;1.20;93.30
18794;DHT22;29610;49.022;12.114;2023-03-03T08:05:29;1.30;93.10
18794;DHT22;29610;49.022;12.114;2023-03-03T08:08:18;1.40;93.40
18794;DHT22;29610;49.022;12.114;2023-03-03T08:10:56;1.50;92.90
18794;DHT22;29610;49.022;12.114;2023-03-03T08:13:28;1.70;92.70
18794;DHT22;29610;49.022;12.114;2023-03-03T08:16:29;1.70;92.60
18794;DHT22;29610;49.022;12.114;2023-03-03T08:19:05;1.80;92.70
18794;DHT22;29610;49.022;12.114;2023-03-03T08:21:35;1.90;92.30
18794;DHT22;29610;49.022;12.114;2023-03-03T08:24:05;2.00;92.30
18794;DHT22;29610;49.022;12.114;2023-03-03T08:26:34;2.10;92.00
18794;DHT22;29610;49.022;12.114;2023-03-03T08:29:03;2.20;91.80
18794;DHT22;29610;49.022;12.114;2023-03-03T08:31:32;2.40;91.60
18794;DHT22;29610;49.022;12.114;2023-03-03T08:34:08;2.60;91.40
18794;DHT22;29610;49.022;12.114;2023-03-03T08:36:36;2.70;91.00
18794;DHT22;29610;49.022;12.114;2023-03-03T08:39:06;2.80;91.00
18794;DHT22;29610;49.022;12.114;2023-03-03T08:41:36;2.90;90.90
18794;DHT22;29610;49.022;12.114;2023-03-03T08:44:07;3.00;90.80
18794;DHT22;29610;49.022;12.114;2023-03-03T08:46:36;3.10;90.50
18794;DHT22;29610;49.022;12.114;2023-03-03T08:49:05;3.10;90.80
18794;DHT22;29610;49.022;12.114;2023-03-03T08:51:33;3.40;90.60
18794;DHT22;29610;49.022;12.114;2023-03-03T08:54:02;3.30;90.40
18794;DHT22;29610;49.022;12.114;2023-03-03T08:56:32;3.70;90.10
18794;DHT22;29610;49.022;12.114;2023-03-03T08:59:01;3.70;89.90
18794;DHT22;29610;49.022;12.114;2023-03-03T09:01:30;3.90;89.90
18794;DHT22;29610;49.022;12.114;2023-03-03T09:04:00;4.00;88.80
18794;DHT22;29610;49.022;12.114;2023-03-03T09:06:28;5.10;88.80
18794;DHT22;29610;49.022;12.114;2023-03-03T09:08:57;4.00;87.80
18794;DHT22;29610;49.022;12.114;2023-03-03T09:11:27;4.10;88.00
18794;DHT22;29610;49.022;12.114;2023-03-03T09:14:05;4.20;87.90
18794;DHT22;29610;49.022;12.114;2023-03-03T09:16:38;4.30;87.00
18794;DHT22;29610;49.022;12.114;2023-03-03T09:19:20;4.50;87.40
18794;DHT22;29610;49.022;12.114;2023-03-03T09:21:52;4.50;86.40
18794;DHT22;29610;49.022;12.114;2023-03-03T09:24:24;4.80;86.50
18794;DHT22;29610;49.022;12.114;2023-03-03T09:26:57;4.80;86.20
18794;DHT22;29610;49.022;12.114;2023-03-03T09:29:29;4.90;85.30
18794;DHT22;29610;49.022;12.114;2023-03-03T09:32:01;4.90;84.50
18794;DHT22;29610;49.022;12.114;2023-03-03T09:34:45;4.70;84.40
18794;DHT22;29610;49.022;12.114;2023-03-03T09:37:20;4.70;85.40
18794;DHT22;29610;49.022;12.114;2023-03-03T09:39:52;4.90;85.40
18794;DHT22;29610;49.022;12.114;2023-03-03T09:42:41;5.10;84.40
18794;DHT22;29610;49.022;12.114;2023-03-03T09:45:37;5.20;83.70
18794;DHT22;29610;49.022;12.114;2023-03-03T09:48:41;5.10;84.20
18794;DHT22;29610;49.022;12.114;2023-03-03T09:51:44;5.20;83.70
18794;DHT22;29610;49.022;12.114;2023-03-03T09:54:41;5.10;84.30
18794;DHT22;29610;49.022;12.114;2023-03-03T09:57:24;5.20;84.60
18794;DHT22;29610;49.022;12.114;2023-03-03T10:00:17;5.50;84.30
18794;DHT22;29610;49.022;12.114;2023-03-03T10:03:09;5.50;84.10
18794;DHT22;29610;49.022;12.114;2023-03-03T10:05:57;5.70;84.30
18794;DHT22;29610;49.022;12.114;2023-03-03T10:08:38;5.90;83.50
18794;DHT22;29610;49.022;12.114;2023-03-03T10:11:22;5.90;83.90
18794;DHT22;29610;49.022;12.114;2023-03-03T10:14:17;6.00;84.40
18794;DHT22;29610;49.022;12.114;2023-03-03T10:17:25;5.90;84.20
18794;DHT22;29610;49.022;12.114;2023-03-03T10:20:18;6.20;85.00
18794;DHT22;29610;49.022;12.114;2023-03-03T10:23:19;6.50;83.20
18794;DHT22;29610;49.022;12.114;2023-03-03T10:26:03;6.40;82.70
18794;DHT22;29610;49.022;12.114;2023-03-03T10:29:06;6.50;82.90
18794;DHT22;29610;49.022;12.114;2023-03-03T10:32:06;6.60;83.70
18794;DHT22;29610;49.022;12.114;2023-03-03T10:35:07;6.80;83.40
18794;DHT22;29610;49.022;12.114;2023-03-03T10:38:23;7.10;81.40
18794;DHT22;29610;49.022;12.114;2023-03-03T10:41:10;7.20;81.70
18794;DHT22;29610;49.022;12.114;2023-03-03T10:44:19;7.40;80.60
18794;DHT22;29610;49.022;12.114;2023-03-03T10:47:29;7.40;80.80
18794;DHT22;29610;49.022;12.114;2023-03-03T10:50:16;7.40;80.10
18794;DHT22;29610;49.022;12.114;2023-03-03T10:52:54;7.60;80.80
18794;DHT22;29610;49.022;12.114;2023-03-03T10:55:41;7.90;81.20
18794;DHT22;29610;49.022;12.114;2023-03-03T10:58:25;8.30;79.30
18794;DHT22;29610;49.022;12.114;2023-03-03T11:01:20;8.50;77.90
18794;DHT22;29610;49.022;12.114;2023-03-03T11:04:19;8.70;78.20
18794;DHT22;29610;49.022;12.114;2023-03-03T11:07:06;8.90;77.20
18794;DHT22;29610;49.022;12.114;2023-03-03T11:10:02;9.00;76.50
18794;DHT22;29610;49.022;12.114;2023-03-03T11:12:52;8.90;75.90
18794;DHT22;29610;49.022;12.114;2023-03-03T11:15:52;9.10;77.20
18794;DHT22;29610;49.022;12.114;2023-03-03T11:18:36;9.40;75.60
18794;DHT22;29610;49.022;12.114;2023-03-03T11:21:21;9.70;75.10
18794;DHT22;29610;49.022;12.114;2023-03-03T11:24:09;10.30;73.20
18794;DHT22;29610;49.022;12.114;2023-03-03T11:27:24;10.40;70.70
18794;DHT22;29610;49.022;12.114;2023-03-03T11:33:11;10.00;72.20
18794;DHT22;29610;49.022;12.114;2023-03-03T11:35:50;10.10;72.90
18794;DHT22;29610;49.022;12.114;2023-03-03T11:38:36;10.20;70.90
18794;DHT22;29610;49.022;12.114;2023-03-03T11:41:30;10.30;71.20
18794;DHT22;29610;49.022;12.114;2023-03-03T11:44:17;10.70;73.10
18794;DHT22;29610;49.022;12.114;2023-03-03T11:46:57;11.00;70.10
18794;DHT22;29610;49.022;12.114;2023-03-03T11:49:33;11.50;69.40
18794;DHT22;29610;49.022;12.114;2023-03-03T11:52:20;11.70;68.30
18794;DHT22;29610;49.022;12.114;2023-03-03T11:54:59;11.90;67.80
18794;DHT22;29610;49.022;12.114;2023-03-03T11:57:35;12.20;67.20
18794;DHT22;29610;49.022;12.114;2023-03-03T12:00:20;12.10;67.70
18794;DHT22;29610;49.022;12.114;2023-03-03T12:03:10;12.20;66.20
18794;DHT22;29610;49.022;12.114;2023-03-03T12:06:00;12.10;67.40
18794;DHT22;29610;49.022;12.114;2023-03-03T12:08:57;12.00;65.80
18794;DHT22;29610;49.022;12.114;2023-03-03T12:11:40;11.90;65.80
18794;DHT22;29610;49.022;12.114;2023-03-03T12:14:28;11.70;65.50
18794;DHT22;29610;49.022;12.114;2023-03-03T12:17:13;11.80;65.10
18794;DHT22;29610;49.022;12.114;2023-03-03T12:19:58;12.00;67.20
18794;DHT22;29610;49.022;12.114;2023-03-03T12:22:38;12.50;67.00
18794;DHT22;29610;49.022;12.114;2023-03-03T12:25:24;12.80;66.10
18794;DHT22;29610;49.022;12.114;2023-03-03T12:28:05;12.90;64.90
18794;DHT22;29610;49.022;12.114;2023-03-03T12:31:08;12.70;63.10
18794;DHT22;29610;49.022;12.114;2023-03-03T12:33:52;12.60;64.00
18794;DHT22;29610;49.022;12.114;2023-03-03T12:36:44;12.80;63.00
18794;DHT22;29610;49.022;12.114;2023-03-03T12:39:31;12.10;64.90
18794;DHT22;29610;49.022;12.114;2023-03-03T12:42:11;12.00;64.40
18794;DHT22;29610;49.022;12.114;2023-03-03T12:44:54;11.90;65.30
18794;DHT22;29610;49.022;12.114;2023-03-03T12:47:37;12.00;65.40
18794;DHT22;29610;49.022;12.114;2023-03-03T12:50:23;12.20;64.80
18794;DHT22;29610;49.022;12.114;2023-03-03T12:53:08;12.00;65.30
18794;DHT22;29610;49.022;12.114;2023-03-03T12:55:51;11.90;65.70
18794;DHT22;29610;49.022;12.114;2023-03-03T12:58:41;12.00;64.70
18794;DHT22;29610;49.022;12.114;2023-03-03T13:01:30;11.80;65.00
18794;DHT22;29610;49.022;12.114;2023-03-03T13:04:12;11.50;65.90
18794;DHT22;29610;49.022;12.114;2023-03-03T13:06:54;11.60;65.80
18794;DHT22;29610;49.022;12.114;2023-03-03T13:09:40;12.30;67.70
18794;DHT22;29610;49.022;12.114;2023-03-03T13:12:32;12.80;64.30
18794;DHT22;29610;49.022;12.114;2023-03-03T13:15:12;13.30;62.50
18794;DHT22;29610;49.022;12.114;2023-03-03T13:18:00;13.50;63.90
18794;DHT22;29610;49.022;12.114;2023-03-03T13:20:44;13.60;61.40
18794;DHT22;29610;49.022;12.114;2023-03-03T13:23:28;13.60;62.00
18794;DHT22;29610;49.022;12.114;2023-03-03T13:26:12;13.90;62.10
18794;DHT22;29610;49.022;12.114;2023-03-03T13:29:01;13.90;60.30
18794;DHT22;29610;49.022;12.114;2023-03-03T13:31:39;13.40;60.80
18794;DHT22;29610;49.022;12.114;2023-03-03T13:34:17;13.40;60.80
18794;DHT22;29610;49.022;12.114;2023-03-03T13:36:57;13.20;61.30
18794;DHT22;29610;49.022;12.114;2023-03-03T13:39:38;13.00;62.20
18794;DHT22;29610;49.022;12.114;2023-03-03T13:42:18;13.00;62.50
18794;DHT22;29610;49.022;12.114;2023-03-03T13:44:55;12.80;62.30
18794;DHT22;29610;49.022;12.114;2023-03-03T13:47:30;12.60;62.00
18794;DHT22;29610;49.022;12.114;2023-03-03T13:50:21;12.80;61.80
18794;DHT22;29610;49.022;12.114;2023-03-03T13:53:05;13.00;61.70
18794;DHT22;29610;49.022;12.114;2023-03-03T13:55:56;13.00;61.20
18794;DHT22;29610;49.022;12.114;2023-03-03T13:58:46;12.70;61.50
18794;DHT22;29610;49.022;12.114;2023-03-03T14:01:31;12.90;61.70
18794;DHT22;29610;49.022;12.114;2023-03-03T14:04:19;13.00;61.30
18794;DHT22;29610;49.022;12.114;2023-03-03T14:07:05;13.00;61.90
18794;DHT22;29610;49.022;12.114;2023-03-03T14:09:53;12.90;61.30
18794;DHT22;29610;49.022;12.114;2023-03-03T14:12:37;13.10;61.90
18794;DHT22;29610;49.022;12.114;2023-03-03T14:15:21;13.10;61.50
18794;DHT22;29610;49.022;12.114;2023-03-03T14:18:04;13.10;61.90
18794;DHT22;29610;49.022;12.114;2023-03-03T14:20:47;13.30;61.30
18794;DHT22;29610;49.022;12.114;2023-03-03T14:23:20;13.20;60.60
18794;DHT22;29610;49.022;12.114;2023-03-03T14:25:58;13.30;59.80
18794;DHT22;29610;49.022;12.114;2023-03-03T14:28:40;13.50;60.50
18794;DHT22;29610;49.022;12.114;2023-03-03T14:31:19;13.50;59.60
18794;DHT22;29610;49.022;12.114;2023-03-03T14:33:58;13.40;60.10
18794;DHT22;29610;49.022;12.114;2023-03-03T14:36:31;13.20;61.30
18794;DHT22;29610;49.022;12.114;2023-03-03T14:39:28;13.30;61.50
18794;DHT22;29610;49.022;12.114;2023-03-03T14:42:01;13.20;62.70
18794;DHT22;29610;49.022;12.114;2023-03-03T14:44:52;13.00;60.80
18794;DHT22;29610;49.022;12.114;2023-03-03T14:47:24;12.80;61.30
18794;DHT22;29610;49.022;12.114;2023-03-03T14:49:55;12.70;61.80
18794;DHT22;29610;49.022;12.114;2023-03-03T14:52:27;12.80;62.20
18794;DHT22;29610;49.022;12.114;2023-03-03T14:54:58;12.80;61.10
18794;DHT22;29610;49.022;12.114;2023-03-03T14:57:39;12.50;61.50
18794;DHT22;29610;49.022;12.114;2023-03-03T15:00:31;12.50;61.80
18794;DHT22;29610;49.022;12.114;2023-03-03T15:03:20;12.40;61.50
18794;DHT22;29610;49.022;12.114;2023-03-03T15:05:50;12.10;61.70
18794;DHT22;29610;49.022;12.114;2023-03-03T15:08:29;12.00;61.30
18794;DHT22;29610;49.022;12.114;2023-03-03T15:11:19;11.80;62.00
18794;DHT22;29610;49.022;12.114;2023-03-03T15:14:08;11.80;62.10
18794;DHT22;29610;49.022;12.114;2023-03-03T15:16:41;11.80;62.20
18794;DHT22;29610;49.022;12.114;2023-03-03T15:19:27;11.70;62.10
18794;DHT22;29610;49.022;12.114;2023-03-03T15:22:17;11.50;61.80
18794;DHT22;29610;49.022;12.114;2023-03-03T15:24:59;11.30;61.70
18794;DHT22;29610;49.022;12.114;2023-03-03T15:27:34;11.10;62.00
18794;DHT22;29610;49.022;12.114;2023-03-03T15:30:17;10.90;62.00
18794;DHT22;29610;49.022;12.114;2023-03-03T15:32:58;10.60;62.40
18794;DHT22;29610;49.022;12.114;2023-03-03T15:35:46;10.50;62.80
18794;DHT22;29610;49.022;12.114;2023-03-03T15:38:52;10.40;63.40
18794;DHT22;29610;49.022;12.114;2023-03-03T15:41:38;10.40;63.50
18794;DHT22;29610;49.022;12.114;2023-03-03T15:44:20;10.20;63.90
18794;DHT22;29610;49.022;12.114;2023-03-03T15:47:19;10.20;63.70
18794;DHT22;29610;49.022;12.114;2023-03-03T15:50:25;10.10;64.40
18794;DHT22;29610;49.022;12.114;2023-03-03T15:53:19;9.90;65.40
18794;DHT22;29610;49.022;12.114;2023-03-03T15:56:11;9.90;64.70
18794;DHT22;29610;49.022;12.114;2023-03-03T15:59:26;9.80;64.10
18794;DHT22;29610;49.022;12.114;2023-03-03T16:02:16;9.70;64.40
18794;DHT22;29610;49.022;12.114;2023-03-03T16:04:57;9.60;65.50
18794;DHT22;29610;49.022;12.114;2023-03-03T16:07:37;9.60;66.10
18794;DHT22;29610;49.022;12.114;2023-03-03T16:10:21;9.50;66.50
18794;DHT22;29610;49.022;12.114;2023-03-03T16:13:02;9.30;66.60
18794;DHT22;29610;49.022;12.114;2023-03-03T16:15:54;9.20;66.20
18794;DHT22;29610;49.022;12.114;2023-03-03T16:18:39;9.20;66.30
18794;DHT22;29610;49.022;12.114;2023-03-03T16:21:22;9.10;66.50
18794;DHT22;29610;49.022;12.114;2023-03-03T16:24:05;9.10;66.30
18794;DHT22;29610;49.022;12.114;2023-03-03T16:26:53;9.00;67.00
18794;DHT22;29610;49.022;12.114;2023-03-03T16:29:40;8.80;67.80
18794;DHT22;29610;49.022;12.114;2023-03-03T16:32:19;8.60;68.20
18794;DHT22;29610;49.022;12.114;2023-03-03T16:34:56;8.50;68.80